sensor_id;sensor_type;location;lat;lon;timestamp;P1;durP1;ratioP1;P2;durP2;ratioP2
38208;SDS011;24016;52.102;11.584;2022-09-20T00:00:42;17.15;;;3.33;;
38208;SDS011;24016;52.102;11.584;2022-09-20T00:03:09;13.13;;;3.10;;
38208;SDS011;24016;52.102;11.584;2022-09-20T00:05:36;10.25;;;3.33;;
38208;SDS011;24016;52.102;11.584;2022-09-20T00:08:03;13.18;;;3.33;;
38208;SDS011;24016;52.102;11.584;2022-09-20T00:10:32;11.43;;;3.15;;
38208;SDS011;24016;52.102;11.584;2022-09-20T00:13:00;9.93;;;2.40;;
38208;SDS011;24016;52.102;11.584;2022-09-20T00:15:26;11.82;;;2.95;;
38208;SDS011;24016;52.102;11.584;2022-09-20T00:17:52;16.02;;;2.90;;
38208;SDS011;24016;52.102;11.584;2022-09-20T00:20:17;14.50;;;3.20;;
38208;SDS011;24016;52.102;11.584;2022-09-20T00:22:43;10.00;;;3.53;;
38208;SDS011;24016;52.102;11.584;2022-09-20T00:25:08;16.55;;;3.28;;
38208;SDS011;24016;52.102;11.584;2022-09-20T00:27:34;9.82;;;3.00;;
38208;SDS011;24016;52.102;11.584;2022-09-20T00:30:00;11.05;;;2.72;;
38208;SDS011;24016;52.102;11.584;2022-09-20T00:32:25;18.02;;;3.60;;
38208;SDS011;24016;52.102;11.584;2022-09-20T00:34:51;13.27;;;3.08;;
38208;SDS011;24016;52.102;11.584;2022-09-20T00:37:31;14.27;;;3.03;;
38208;SDS011;24016;52.102;11.584;2022-09-20T00:40:02;11.65;;;2.45;;
38208;SDS011;24016;52.102;11.584;2022-09-20T00:42:29;10.48;;;2.55;;
38208;SDS011;24016;52.102;11.584;2022-09-20T00:52:38;13.00;;;2.60;;
38208;SDS011;24016;52.102;11.584;2022-09-20T00:55:05;13.63;;;3.25;;
38208;SDS011;24016;52.102;11.584;2022-09-20T00:57:32;8.95;;;3.13;;
38208;SDS011;24016;52.102;11.584;2022-09-20T01:00:00;10.80;;;2.70;;
38208;SDS011;24016;52.102;11.584;2022-09-20T01:02:29;15.43;;;2.72;;
38208;SDS011;24016;52.102;11.584;2022-09-20T01:04:56;9.88;;;2.30;;
38208;SDS011;24016;52.102;11.584;2022-09-20T01:07:23;12.60;;;3.05;;
38208;SDS011;24016;52.102;11.584;2022-09-20T01:09:50;11.00;;;2.60;;
38208;SDS011;24016;52.102;11.584;2022-09-20T01:12:23;8.15;;;2.63;;
38208;SDS011;24016;52.102;11.584;2022-09-20T01:14:51;11.73;;;2.70;;
38208;SDS011;24016;52.102;11.584;2022-09-20T01:17:18;13.43;;;2.97;;
38208;SDS011;24016;52.102;11.584;2022-09-20T01:19:55;10.23;;;2.40;;
38208;SDS011;24016;52.102;11.584;2022-09-20T01:25:26;13.38;;;3.90;;
38208;SDS011;24016;52.102;11.584;2022-09-20T01:27:56;8.90;;;3.65;;
38208;SDS011;24016;52.102;11.584;2022-09-20T01:35:33;11.85;;;5.18;;
38208;SDS011;24016;52.102;11.584;2022-09-20T01:40:55;13.00;;;5.30;;
38208;SDS011;24016;52.102;11.584;2022-09-20T01:43:29;15.60;;;5.38;;
38208;SDS011;24016;52.102;11.584;2022-09-20T01:46:23;17.20;;;5.30;;
38208;SDS011;24016;52.102;11.584;2022-09-20T01:48:53;18.35;;;6.80;;
38208;SDS011;24016;52.102;11.584;2022-09-20T02:14:03;15.23;;;6.45;;
38208;SDS011;24016;52.102;11.584;2022-09-20T02:16:50;15.13;;;6.20;;
38208;SDS011;24016;52.102;11.584;2022-09-20T02:25:24;15.80;;;5.30;;
38208;SDS011;24016;52.102;11.584;2022-09-20T02:28:17;17.60;;;4.50;;
38208;SDS011;24016;52.102;11.584;2022-09-20T02:47:26;15.10;;;4.55;;
38208;SDS011;24016;52.102;11.584;2022-09-20T02:53:13;15.35;;;4.28;;
38208;SDS011;24016;52.102;11.584;2022-09-20T02:58:59;16.58;;;6.00;;
38208;SDS011;24016;52.102;11.584;2022-09-20T03:07:21;13.27;;;6.00;;
38208;SDS011;24016;52.102;11.584;2022-09-20T03:10:18;15.02;;;6.60;;
38208;SDS011;24016;52.102;11.584;2022-09-20T03:13:09;22.85;;;7.63;;
38208;SDS011;24016;52.102;11.584;2022-09-20T03:18:42;14.45;;;8.68;;
38208;SDS011;24016;52.102;11.584;2022-09-20T03:21:51;18.00;;;8.20;;
38208;SDS011;24016;52.102;11.584;2022-09-20T03:24:33;16.38;;;9.55;;
38208;SDS011;24016;52.102;11.584;2022-09-20T03:27:18;17.90;;;9.48;;
38208;SDS011;24016;52.102;11.584;2022-09-20T03:33:09;21.92;;;10.35;;
38208;SDS011;24016;52.102;11.584;2022-09-20T03:38:54;16.90;;;10.40;;
38208;SDS011;24016;52.102;11.584;2022-09-20T03:44:18;44.72;;;11.95;;
38208;SDS011;24016;52.102;11.584;2022-09-20T03:47:52;24.15;;;12.18;;
38208;SDS011;24016;52.102;11.584;2022-09-20T03:52:57;23.25;;;11.82;;
38208;SDS011;24016;52.102;11.584;2022-09-20T04:06:32;20.90;;;11.75;;
38208;SDS011;24016;52.102;11.584;2022-09-20T04:12:40;28.88;;;12.63;;
38208;SDS011;24016;52.102;11.584;2022-09-20T04:15:36;19.98;;;11.43;;
38208;SDS011;24016;52.102;11.584;2022-09-20T04:21:09;23.00;;;11.68;;
38208;SDS011;24016;52.102;11.584;2022-09-20T04:24:03;18.25;;;11.43;;
38208;SDS011;24016;52.102;11.584;2022-09-20T04:26:36;22.15;;;11.32;;
38208;SDS011;24016;52.102;11.584;2022-09-20T04:32:08;22.63;;;11.48;;
38208;SDS011;24016;52.102;11.584;2022-09-20T04:37:42;27.60;;;10.90;;
38208;SDS011;24016;52.102;11.584;2022-09-20T04:40:19;21.48;;;10.95;;
38208;SDS011;24016;52.102;11.584;2022-09-20T04:46:02;21.42;;;11.13;;
38208;SDS011;24016;52.102;11.584;2022-09-20T04:58:01;22.35;;;10.30;;
38208;SDS011;24016;52.102;11.584;2022-09-20T05:18:14;19.70;;;9.57;;
38208;SDS011;24016;52.102;11.584;2022-09-20T05:23:37;21.98;;;9.63;;
38208;SDS011;24016;52.102;11.584;2022-09-20T05:29:17;23.40;;;10.80;;
38208;SDS011;24016;52.102;11.584;2022-09-20T05:32:00;22.02;;;10.05;;
38208;SDS011;24016;52.102;11.584;2022-09-20T05:34:43;22.30;;;10.05;;
38208;SDS011;24016;52.102;11.584;2022-09-20T05:37:18;23.85;;;10.90;;
38208;SDS011;24016;52.102;11.584;2022-09-20T05:40:27;19.75;;;10.13;;
38208;SDS011;24016;52.102;11.584;2022-09-20T05:43:08;16.35;;;10.25;;
38208;SDS011;24016;52.102;11.584;2022-09-20T05:46:03;17.60;;;10.57;;
38208;SDS011;24016;52.102;11.584;2022-09-20T05:48:59;23.08;;;10.57;;
38208;SDS011;24016;52.102;11.584;2022-09-20T05:51:41;18.08;;;10.55;;
38208;SDS011;24016;52.102;11.584;2022-09-20T05:57:27;25.10;;;10.55;;
38208;SDS011;24016;52.102;11.584;2022-09-20T06:00:13;18.70;;;8.73;;
38208;SDS011;24016;52.102;11.584;2022-09-20T06:05:49;18.30;;;8.57;;
38208;SDS011;24016;52.102;11.584;2022-09-20T06:14:13;15.35;;;8.02;;
38208;SDS011;24016;52.102;11.584;2022-09-20T06:17:27;14.05;;;7.93;;
38208;SDS011;24016;52.102;11.584;2022-09-20T06:19:34;17.80;;;7.22;;
38208;SDS011;24016;52.102;11.584;2022-09-20T06:22:14;13.25;;;7.05;;
38208;SDS011;24016;52.102;11.584;2022-09-20T06:24:58;17.77;;;7.13;;
38208;SDS011;24016;52.102;11.584;2022-09-20T06:27:33;12.93;;;7.40;;
38208;SDS011;24016;52.102;11.584;2022-09-20T06:30:03;15.48;;;7.50;;
38208;SDS011;24016;52.102;11.584;2022-09-20T06:32:31;13.52;;;7.03;;
38208;SDS011;24016;52.102;11.584;2022-09-20T06:34:58;13.93;;;7.78;;
38208;SDS011;24016;52.102;11.584;2022-09-20T06:43:21;10.50;;;5.90;;
38208;SDS011;24016;52.102;11.584;2022-09-20T06:45:46;14.45;;;7.47;;
38208;SDS011;24016;52.102;11.584;2022-09-20T06:48:12;13.10;;;7.00;;
38208;SDS011;24016;52.102;11.584;2022-09-20T06:50:39;12.10;;;6.93;;
38208;SDS011;24016;52.102;11.584;2022-09-20T06:53:09;13.82;;;6.93;;
38208;SDS011;24016;52.102;11.584;2022-09-20T06:55:40;12.80;;;7.28;;
38208;SDS011;24016;52.102;11.584;2022-09-20T06:58:08;12.98;;;7.05;;
38208;SDS011;24016;52.102;11.584;2022-09-20T07:00:34;13.88;;;6.70;;
38208;SDS011;24016;52.102;11.584;2022-09-20T07:03:00;10.93;;;7.22;;
38208;SDS011;24016;52.102;11.584;2022-09-20T07:05:26;12.43;;;7.05;;
38208;SDS011;24016;52.102;11.584;2022-09-20T07:07:55;11.68;;;7.28;;
38208;SDS011;24016;52.102;11.584;2022-09-20T07:10:24;8.45;;;6.18;;
38208;SDS011;24016;52.102;11.584;2022-09-20T07:12:57;11.27;;;7.43;;
38208;SDS011;24016;52.102;11.584;2022-09-20T07:15:24;11.95;;;6.95;;
38208;SDS011;24016;52.102;11.584;2022-09-20T07:17:51;13.02;;;6.05;;
38208;SDS011;24016;52.102;11.584;2022-09-20T07:20:16;11.57;;;6.60;;
38208;SDS011;24016;52.102;11.584;2022-09-20T07:22:43;10.07;;;5.75;;
38208;SDS011;24016;52.102;11.584;2022-09-20T07:25:09;12.30;;;5.80;;
38208;SDS011;24016;52.102;11.584;2022-09-20T07:27:35;9.70;;;5.55;;
38208;SDS011;24016;52.102;11.584;2022-09-20T07:30:00;12.55;;;5.80;;
38208;SDS011;24016;52.102;11.584;2022-09-20T07:32:26;14.05;;;5.78;;
38208;SDS011;24016;52.102;11.584;2022-09-20T07:34:52;10.50;;;5.80;;
38208;SDS011;24016;52.102;11.584;2022-09-20T07:37:17;11.63;;;5.72;;
38208;SDS011;24016;52.102;11.584;2022-09-20T07:39:44;11.43;;;6.13;;
38208;SDS011;24016;52.102;11.584;2022-09-20T07:42:09;8.25;;;5.45;;
38208;SDS011;24016;52.102;11.584;2022-09-20T07:44:35;10.98;;;6.05;;
38208;SDS011;24016;52.102;11.584;2022-09-20T07:47:04;9.50;;;5.30;;
38208;SDS011;24016;52.102;11.584;2022-09-20T07:49:30;10.40;;;5.30;;
38208;SDS011;24016;52.102;11.584;2022-09-20T07:51:56;12.02;;;5.22;;
38208;SDS011;24016;52.102;11.584;2022-09-20T07:54:22;9.15;;;5.20;;
38208;SDS011;24016;52.102;11.584;2022-09-20T07:56:48;10.65;;;5.20;;
38208;SDS011;24016;52.102;11.584;2022-09-20T07:59:13;9.98;;;5.28;;
38208;SDS011;24016;52.102;11.584;2022-09-20T08:01:39;11.75;;;5.65;;
38208;SDS011;24016;52.102;11.584;2022-09-20T08:04:06;9.50;;;5.97;;
38208;SDS011;24016;52.102;11.584;2022-09-20T08:06:36;8.98;;;5.25;;
38208;SDS011;24016;52.102;11.584;2022-09-20T08:09:03;8.20;;;5.00;;
38208;SDS011;24016;52.102;11.584;2022-09-20T08:11:29;8.25;;;4.70;;
38208;SDS011;24016;52.102;11.584;2022-09-20T08:13:55;9.95;;;4.68;;
38208;SDS011;24016;52.102;11.584;2022-09-20T08:16:23;8.82;;;5.05;;
38208;SDS011;24016;52.102;11.584;2022-09-20T08:18:50;10.63;;;5.38;;
38208;SDS011;24016;52.102;11.584;2022-09-20T08:21:19;7.20;;;4.70;;
38208;SDS011;24016;52.102;11.584;2022-09-20T08:23:45;8.65;;;4.45;;
38208;SDS011;24016;52.102;11.584;2022-09-20T08:26:16;7.63;;;4.45;;
38208;SDS011;24016;52.102;11.584;2022-09-20T08:28:43;8.23;;;4.38;;
38208;SDS011;24016;52.102;11.584;2022-09-20T08:31:11;9.80;;;4.50;;
38208;SDS011;24016;52.102;11.584;2022-09-20T08:33:38;9.45;;;4.55;;
38208;SDS011;24016;52.102;11.584;2022-09-20T08:36:04;9.18;;;4.38;;
38208;SDS011;24016;52.102;11.584;2022-09-20T08:38:31;10.05;;;4.15;;
38208;SDS011;24016;52.102;11.584;2022-09-20T08:41:04;11.10;;;4.35;;
38208;SDS011;24016;52.102;11.584;2022-09-20T08:43:40;8.02;;;3.97;;
38208;SDS011;24016;52.102;11.584;2022-09-20T08:46:14;10.23;;;4.10;;
38208;SDS011;24016;52.102;11.584;2022-09-20T08:48:43;9.48;;;4.03;;
38208;SDS011;24016;52.102;11.584;2022-09-20T08:51:13;7.78;;;3.88;;
38208;SDS011;24016;52.102;11.584;2022-09-20T08:53:45;5.45;;;3.80;;
38208;SDS011;24016;52.102;11.584;2022-09-20T08:56:13;7.53;;;3.92;;
38208;SDS011;24016;52.102;11.584;2022-09-20T08:58:38;9.13;;;3.80;;
38208;SDS011;24016;52.102;11.584;2022-09-20T09:01:04;10.27;;;4.47;;
38208;SDS011;24016;52.102;11.584;2022-09-20T09:03:31;6.95;;;4.38;;
38208;SDS011;24016;52.102;11.584;2022-09-20T09:05:57;6.88;;;3.60;;
38208;SDS011;24016;52.102;11.584;2022-09-20T09:08:32;7.85;;;4.18;;
38208;SDS011;24016;52.102;11.584;2022-09-20T09:11:03;7.22;;;3.90;;
38208;SDS011;24016;52.102;11.584;2022-09-20T09:13:36;7.32;;;3.80;;
38208;SDS011;24016;52.102;11.584;2022-09-20T09:16:23;5.38;;;4.25;;
38208;SDS011;24016;52.102;11.584;2022-09-20T09:18:51;7.35;;;4.45;;
38208;SDS011;24016;52.102;11.584;2022-09-20T09:21:21;7.63;;;4.43;;
38208;SDS011;24016;52.102;11.584;2022-09-20T09:23:53;7.30;;;4.15;;
38208;SDS011;24016;52.102;11.584;2022-09-20T09:26:27;6.15;;;4.07;;
38208;SDS011;24016;52.102;11.584;2022-09-20T09:29:06;8.18;;;3.90;;
38208;SDS011;24016;52.102;11.584;2022-09-20T09:31:43;9.48;;;4.57;;
38208;SDS011;24016;52.102;11.584;2022-09-20T09:34:24;6.93;;;4.40;;
38208;SDS011;24016;52.102;11.584;2022-09-20T09:36:55;7.40;;;4.20;;
38208;SDS011;24016;52.102;11.584;2022-09-20T09:39:23;7.95;;;4.25;;
38208;SDS011;24016;52.102;11.584;2022-09-20T09:41:54;10.20;;;4.32;;
38208;SDS011;24016;52.102;11.584;2022-09-20T09:44:24;6.13;;;4.65;;
38208;SDS011;24016;52.102;11.584;2022-09-20T09:46:52;9.07;;;5.07;;
38208;SDS011;24016;52.102;11.584;2022-09-20T09:49:20;6.93;;;4.35;;
38208;SDS011;24016;52.102;11.584;2022-09-20T09:52:01;6.22;;;4.28;;
38208;SDS011;24016;52.102;11.584;2022-09-20T09:54:38;6.38;;;3.92;;
38208;SDS011;24016;52.102;11.584;2022-09-20T09:57:22;6.25;;;4.30;;
38208;SDS011;24016;52.102;11.584;2022-09-20T10:05:20;7.28;;;3.40;;
38208;SDS011;24016;52.102;11.584;2022-09-20T10:08:09;5.13;;;3.40;;
38208;SDS011;24016;52.102;11.584;2022-09-20T10:13:26;7.47;;;4.18;;
38208;SDS011;24016;52.102;11.584;2022-09-20T10:16:07;7.90;;;3.80;;
38208;SDS011;24016;52.102;11.584;2022-09-20T10:21:36;7.00;;;3.95;;
38208;SDS011;24016;52.102;11.584;2022-09-20T10:24:41;5.72;;;3.67;;
38208;SDS011;24016;52.102;11.584;2022-09-20T10:27:29;6.32;;;3.75;;
38208;SDS011;24016;52.102;11.584;2022-09-20T10:30:18;5.95;;;3.67;;
38208;SDS011;24016;52.102;11.584;2022-09-20T10:32:50;6.70;;;3.50;;
38208;SDS011;24016;52.102;11.584;2022-09-20T10:38:26;4.63;;;3.33;;
38208;SDS011;24016;52.102;11.584;2022-09-20T10:41:02;4.75;;;3.58;;
38208;SDS011;24016;52.102;11.584;2022-09-20T10:43:55;7.25;;;3.35;;
38208;SDS011;24016;52.102;11.584;2022-09-20T10:49:19;5.28;;;3.90;;
38208;SDS011;24016;52.102;11.584;2022-09-20T10:55:06;4.75;;;3.05;;
38208;SDS011;24016;52.102;11.584;2022-09-20T10:57:52;5.43;;;2.77;;
38208;SDS011;24016;52.102;11.584;2022-09-20T11:00:49;5.05;;;3.42;;
38208;SDS011;24016;52.102;11.584;2022-09-20T11:03:37;4.75;;;2.92;;
38208;SDS011;24016;52.102;11.584;2022-09-20T11:08:50;4.97;;;3.13;;
38208;SDS011;24016;52.102;11.584;2022-09-20T11:11:30;4.55;;;3.40;;
38208;SDS011;24016;52.102;11.584;2022-09-20T11:14:05;5.13;;;3.42;;
38208;SDS011;24016;52.102;11.584;2022-09-20T11:19:49;5.22;;;2.92;;
38208;SDS011;24016;52.102;11.584;2022-09-20T11:22:29;4.38;;;3.35;;
38208;SDS011;24016;52.102;11.584;2022-09-20T11:30:22;5.07;;;3.22;;
38208;SDS011;24016;52.102;11.584;2022-09-20T11:32:53;4.78;;;3.30;;
38208;SDS011;24016;52.102;11.584;2022-09-20T11:35:28;3.75;;;2.78;;
38208;SDS011;24016;52.102;11.584;2022-09-20T11:38:10;4.20;;;3.15;;
38208;SDS011;24016;52.102;11.584;2022-09-20T11:40:56;5.63;;;2.60;;
38208;SDS011;24016;52.102;11.584;2022-09-20T11:43:26;5.55;;;2.78;;
38208;SDS011;24016;52.102;11.584;2022-09-20T11:45:54;4.13;;;2.42;;
38208;SDS011;24016;52.102;11.584;2022-09-20T11:48:28;4.43;;;2.40;;
38208;SDS011;24016;52.102;11.584;2022-09-20T11:51:14;4.85;;;2.95;;
38208;SDS011;24016;52.102;11.584;2022-09-20T11:56:59;5.55;;;2.80;;
38208;SDS011;24016;52.102;11.584;2022-09-20T11:59:34;6.55;;;3.10;;
38208;SDS011;24016;52.102;11.584;2022-09-20T12:02:03;4.50;;;2.70;;
38208;SDS011;24016;52.102;11.584;2022-09-20T12:04:41;4.65;;;3.10;;
38208;SDS011;24016;52.102;11.584;2022-09-20T12:07:16;4.63;;;2.70;;
38208;SDS011;24016;52.102;11.584;2022-09-20T12:09:44;4.15;;;2.90;;
38208;SDS011;24016;52.102;11.584;2022-09-20T12:14:57;4.85;;;2.78;;
38208;SDS011;24016;52.102;11.584;2022-09-20T12:26:01;1.83;;;1.52;;
38208;SDS011;24016;52.102;11.584;2022-09-20T12:28:35;7.55;;;1.60;;
38208;SDS011;24016;52.102;11.584;2022-09-20T12:37:14;2.05;;;1.45;;
38208;SDS011;24016;52.102;11.584;2022-09-20T12:39:30;3.40;;;1.50;;
38208;SDS011;24016;52.102;11.584;2022-09-20T12:41:58;2.35;;;1.20;;
38208;SDS011;24016;52.102;11.584;2022-09-20T12:44:31;2.72;;;1.50;;
38208;SDS011;24016;52.102;11.584;2022-09-20T12:55:31;2.67;;;1.70;;
38208;SDS011;24016;52.102;11.584;2022-09-20T12:58:05;4.57;;;1.70;;
38208;SDS011;24016;52.102;11.584;2022-09-20T13:09:15;3.25;;;1.67;;
38208;SDS011;24016;52.102;11.584;2022-09-20T13:11:39;2.78;;;1.60;;
38208;SDS011;24016;52.102;11.584;2022-09-20T13:14:19;2.13;;;1.30;;
38208;SDS011;24016;52.102;11.584;2022-09-20T13:17:01;3.30;;;1.40;;
38208;SDS011;24016;52.102;11.584;2022-09-20T13:19:40;2.28;;;1.00;;
38208;SDS011;24016;52.102;11.584;2022-09-20T13:25:03;2.25;;;1.48;;
38208;SDS011;24016;52.102;11.584;2022-09-20T13:27:34;3.53;;;1.27;;
38208;SDS011;24016;52.102;11.584;2022-09-20T13:30:08;2.03;;;1.10;;
38208;SDS011;24016;52.102;11.584;2022-09-20T13:32:44;1.17;;;0.88;;
38208;SDS011;24016;52.102;11.584;2022-09-20T13:37:37;3.00;;;1.50;;
38208;SDS011;24016;52.102;11.584;2022-09-20T13:40:14;3.90;;;1.40;;
38208;SDS011;24016;52.102;11.584;2022-09-20T13:43:04;2.58;;;1.33;;
38208;SDS011;24016;52.102;11.584;2022-09-20T13:45:31;3.10;;;1.88;;
38208;SDS011;24016;52.102;11.584;2022-09-20T13:47:58;2.45;;;1.67;;
38208;SDS011;24016;52.102;11.584;2022-09-20T13:52:55;2.88;;;1.58;;
38208;SDS011;24016;52.102;11.584;2022-09-20T13:57:56;2.58;;;1.70;;
38208;SDS011;24016;52.102;11.584;2022-09-20T14:00:26;2.75;;;1.63;;
38208;SDS011;24016;52.102;11.584;2022-09-20T14:02:53;3.45;;;1.90;;
38208;SDS011;24016;52.102;11.584;2022-09-20T14:05:19;1.95;;;1.52;;
38208;SDS011;24016;52.102;11.584;2022-09-20T14:07:47;3.25;;;1.65;;
38208;SDS011;24016;52.102;11.584;2022-09-20T14:10:33;2.03;;;1.25;;
38208;SDS011;24016;52.102;11.584;2022-09-20T14:13:02;1.25;;;1.10;;
38208;SDS011;24016;52.102;11.584;2022-09-20T14:15:51;1.75;;;1.30;;
38208;SDS011;24016;52.102;11.584;2022-09-20T14:18:17;2.80;;;1.20;;
38208;SDS011;24016;52.102;11.584;2022-09-20T14:20:45;1.85;;;1.10;;
38208;SDS011;24016;52.102;11.584;2022-09-20T14:23:29;2.08;;;1.20;;
38208;SDS011;24016;52.102;11.584;2022-09-20T14:26:04;1.88;;;0.90;;
38208;SDS011;24016;52.102;11.584;2022-09-20T14:28:51;2.30;;;0.80;;
38208;SDS011;24016;52.102;11.584;2022-09-20T14:31:19;1.55;;;1.20;;
38208;SDS011;24016;52.102;11.584;2022-09-20T14:33:50;1.40;;;1.17;;
38208;SDS011;24016;52.102;11.584;2022-09-20T14:36:19;2.00;;;1.10;;
38208;SDS011;24016;52.102;11.584;2022-09-20T14:38:47;4.65;;;1.17;;
38208;SDS011;24016;52.102;11.584;2022-09-20T14:41:22;2.58;;;1.30;;
38208;SDS011;24016;52.102;11.584;2022-09-20T14:44:06;2.28;;;1.20;;
38208;SDS011;24016;52.102;11.584;2022-09-20T14:46:47;1.58;;;1.05;;
38208;SDS011;24016;52.102;11.584;2022-09-20T14:52:00;1.17;;;0.93;;
38208;SDS011;24016;52.102;11.584;2022-09-20T14:55:00;3.30;;;1.10;;
38208;SDS011;24016;52.102;11.584;2022-09-20T14:57:32;5.68;;;1.00;;
38208;SDS011;24016;52.102;11.584;2022-09-20T15:00:03;1.85;;;0.90;;
38208;SDS011;24016;52.102;11.584;2022-09-20T15:02:29;2.70;;;1.17;;
38208;SDS011;24016;52.102;11.584;2022-09-20T15:04:58;1.77;;;0.73;;
38208;SDS011;24016;52.102;11.584;2022-09-20T15:07:24;1.52;;;1.00;;
38208;SDS011;24016;52.102;11.584;2022-09-20T15:09:50;3.78;;;0.90;;
38208;SDS011;24016;52.102;11.584;2022-09-20T15:12:17;1.25;;;0.80;;
38208;SDS011;24016;52.102;11.584;2022-09-20T15:14:44;0.80;;;0.77;;
38208;SDS011;24016;52.102;11.584;2022-09-20T15:17:17;1.23;;;0.70;;
38208;SDS011;24016;52.102;11.584;2022-09-20T15:19:44;4.10;;;1.00;;
38208;SDS011;24016;52.102;11.584;2022-09-20T15:22:11;2.65;;;0.85;;
38208;SDS011;24016;52.102;11.584;2022-09-20T15:24:37;2.28;;;0.80;;
38208;SDS011;24016;52.102;11.584;2022-09-20T15:27:04;5.90;;;1.05;;
38208;SDS011;24016;52.102;11.584;2022-09-20T15:29:30;4.57;;;0.80;;
38208;SDS011;24016;52.102;11.584;2022-09-20T15:31:55;1.75;;;0.80;;
38208;SDS011;24016;52.102;11.584;2022-09-20T15:34:21;1.15;;;1.00;;
38208;SDS011;24016;52.102;11.584;2022-09-20T15:36:46;2.45;;;0.93;;
38208;SDS011;24016;52.102;11.584;2022-09-20T15:39:12;0.75;;;0.73;;
38208;SDS011;24016;52.102;11.584;2022-09-20T15:41:38;1.55;;;0.70;;
38208;SDS011;24016;52.102;11.584;2022-09-20T15:44:04;2.30;;;1.00;;
38208;SDS011;24016;52.102;11.584;2022-09-20T15:46:31;3.20;;;0.90;;
38208;SDS011;24016;52.102;11.584;2022-09-20T15:48:58;1.08;;;0.77;;
38208;SDS011;24016;52.102;11.584;2022-09-20T15:51:25;1.90;;;0.68;;
38208;SDS011;24016;52.102;11.584;2022-09-20T15:53:55;0.68;;;0.68;;
38208;SDS011;24016;52.102;11.584;2022-09-20T15:56:24;1.48;;;0.70;;
38208;SDS011;24016;52.102;11.584;2022-09-20T15:58:52;1.85;;;0.65;;
38208;SDS011;24016;52.102;11.584;2022-09-20T16:01:43;0.90;;;0.70;;
38208;SDS011;24016;52.102;11.584;2022-09-20T16:04:13;1.25;;;0.80;;
38208;SDS011;24016;52.102;11.584;2022-09-20T16:06:42;2.28;;;0.90;;
38208;SDS011;24016;52.102;11.584;2022-09-20T16:09:09;1.38;;;0.70;;
38208;SDS011;24016;52.102;11.584;2022-09-20T16:11:34;1.27;;;0.63;;
38208;SDS011;24016;52.102;11.584;2022-09-20T16:14:01;0.80;;;0.68;;
38208;SDS011;24016;52.102;11.584;2022-09-20T16:16:27;1.58;;;0.68;;
38208;SDS011;24016;52.102;11.584;2022-09-20T16:18:54;1.80;;;0.82;;
38208;SDS011;24016;52.102;11.584;2022-09-20T16:21:39;1.27;;;0.80;;
38208;SDS011;24016;52.102;11.584;2022-09-20T16:24:06;0.88;;;0.80;;
38208;SDS011;24016;52.102;11.584;2022-09-20T16:26:32;1.00;;;0.70;;
38208;SDS011;24016;52.102;11.584;2022-09-20T16:28:59;3.08;;;0.80;;
38208;SDS011;24016;52.102;11.584;2022-09-20T16:34:13;0.85;;;0.70;;
38208;SDS011;24016;52.102;11.584;2022-09-20T16:36:54;2.20;;;0.87;;
38208;SDS011;24016;52.102;11.584;2022-09-20T16:39:22;1.25;;;0.73;;
38208;SDS011;24016;52.102;11.584;2022-09-20T16:41:52;1.23;;;0.73;;
38208;SDS011;24016;52.102;11.584;2022-09-20T16:44:19;3.33;;;0.90;;
38208;SDS011;24016;52.102;11.584;2022-09-20T16:46:45;1.33;;;0.73;;
38208;SDS011;24016;52.102;11.584;2022-09-20T16:49:11;2.35;;;0.90;;
38208;SDS011;24016;52.102;11.584;2022-09-20T16:51:40;1.08;;;0.90;;
38208;SDS011;24016;52.102;11.584;2022-09-20T16:54:08;2.38;;;1.40;;
38208;SDS011;24016;52.102;11.584;2022-09-20T16:56:48;3.38;;;1.45;;
38208;SDS011;24016;52.102;11.584;2022-09-20T16:59:15;3.22;;;1.08;;
38208;SDS011;24016;52.102;11.584;2022-09-20T17:01:42;1.92;;;1.10;;
38208;SDS011;24016;52.102;11.584;2022-09-20T17:04:08;4.65;;;1.38;;
38208;SDS011;24016;52.102;11.584;2022-09-20T17:06:37;4.07;;;1.40;;
38208;SDS011;24016;52.102;11.584;2022-09-20T17:09:06;4.28;;;1.27;;
38208;SDS011;24016;52.102;11.584;2022-09-20T17:11:33;6.05;;;1.63;;
38208;SDS011;24016;52.102;11.584;2022-09-20T17:14:02;3.42;;;1.52;;
38208;SDS011;24016;52.102;11.584;2022-09-20T17:16:29;2.92;;;1.30;;
38208;SDS011;24016;52.102;11.584;2022-09-20T17:18:58;2.83;;;1.17;;
38208;SDS011;24016;52.102;11.584;2022-09-20T17:21:26;2.30;;;1.05;;
38208;SDS011;24016;52.102;11.584;2022-09-20T17:23:53;3.10;;;1.00;;
38208;SDS011;24016;52.102;11.584;2022-09-20T17:26:25;5.10;;;0.90;;
38208;SDS011;24016;52.102;11.584;2022-09-20T17:28:53;3.80;;;1.00;;
38208;SDS011;24016;52.102;11.584;2022-09-20T17:31:20;7.32;;;1.48;;
38208;SDS011;24016;52.102;11.584;2022-09-20T17:33:48;2.58;;;1.20;;
38208;SDS011;24016;52.102;11.584;2022-09-20T17:36:15;3.50;;;1.30;;
38208;SDS011;24016;52.102;11.584;2022-09-20T17:38:46;4.68;;;1.58;;
38208;SDS011;24016;52.102;11.584;2022-09-20T17:41:14;3.95;;;1.55;;
38208;SDS011;24016;52.102;11.584;2022-09-20T17:43:41;3.50;;;1.52;;
38208;SDS011;24016;52.102;11.584;2022-09-20T17:46:14;7.88;;;2.05;;
38208;SDS011;24016;52.102;11.584;2022-09-20T17:48:45;5.60;;;1.70;;
38208;SDS011;24016;52.102;11.584;2022-09-20T17:51:13;3.22;;;1.50;;
38208;SDS011;24016;52.102;11.584;2022-09-20T17:53:40;3.50;;;1.63;;
38208;SDS011;24016;52.102;11.584;2022-09-20T17:56:06;3.47;;;1.42;;
38208;SDS011;24016;52.102;11.584;2022-09-20T17:58:32;4.07;;;1.65;;
38208;SDS011;24016;52.102;11.584;2022-09-20T18:01:18;5.68;;;1.27;;
38208;SDS011;24016;52.102;11.584;2022-09-20T18:03:47;2.90;;;1.30;;
38208;SDS011;24016;52.102;11.584;2022-09-20T18:06:20;4.07;;;1.90;;
38208;SDS011;24016;52.102;11.584;2022-09-20T18:08:55;4.65;;;2.28;;
38208;SDS011;24016;52.102;11.584;2022-09-20T18:11:23;3.40;;;2.00;;
38208;SDS011;24016;52.102;11.584;2022-09-20T18:13:55;4.70;;;2.47;;
38208;SDS011;24016;52.102;11.584;2022-09-20T18:16:21;4.40;;;2.70;;
38208;SDS011;24016;52.102;11.584;2022-09-20T18:18:47;8.70;;;2.72;;
38208;SDS011;24016;52.102;11.584;2022-09-20T18:21:17;7.72;;;3.92;;
38208;SDS011;24016;52.102;11.584;2022-09-20T18:23:45;7.30;;;4.97;;
38208;SDS011;24016;52.102;11.584;2022-09-20T18:26:12;6.60;;;3.92;;
38208;SDS011;24016;52.102;11.584;2022-09-20T18:28:52;6.40;;;2.33;;
38208;SDS011;24016;52.102;11.584;2022-09-20T18:31:19;4.55;;;2.40;;
38208;SDS011;24016;52.102;11.584;2022-09-20T18:33:45;3.75;;;1.88;;
38208;SDS011;24016;52.102;11.584;2022-09-20T18:36:11;5.88;;;2.10;;
38208;SDS011;24016;52.102;11.584;2022-09-20T18:38:37;8.40;;;2.30;;
38208;SDS011;24016;52.102;11.584;2022-09-20T18:41:04;6.30;;;2.08;;
38208;SDS011;24016;52.102;11.584;2022-09-20T18:43:30;5.22;;;1.80;;
38208;SDS011;24016;52.102;11.584;2022-09-20T18:45:56;6.35;;;2.00;;
38208;SDS011;24016;52.102;11.584;2022-09-20T18:48:22;4.82;;;1.77;;
38208;SDS011;24016;52.102;11.584;2022-09-20T18:50:59;3.63;;;1.35;;
38208;SDS011;24016;52.102;11.584;2022-09-20T18:53:30;2.17;;;1.25;;
38208;SDS011;24016;52.102;11.584;2022-09-20T18:56:11;3.20;;;0.90;;
38208;SDS011;24016;52.102;11.584;2022-09-20T18:58:45;4.10;;;1.38;;
38208;SDS011;24016;52.102;11.584;2022-09-20T19:01:33;2.25;;;1.10;;
38208;SDS011;24016;52.102;11.584;2022-09-20T19:04:39;3.42;;;1.45;;
38208;SDS011;24016;52.102;11.584;2022-09-20T19:07:25;2.72;;;1.00;;
38208;SDS011;24016;52.102;11.584;2022-09-20T19:13:05;3.90;;;1.73;;
38208;SDS011;24016;52.102;11.584;2022-09-20T19:16:14;2.33;;;1.20;;